Time;durP1;ratioP1;P1;durP2;ratioP2;P2;SDS_P1;SDS_P2;PMS_P1;PMS_P2;Temp;Humidity;BMP_temperature;BMP_pressure;BME280_temperature;BME280_humidity;BME280_pressure;Samples;Min_cycle;Max_cycle;Signal;HPM_P1;HPM_P2
2022/12/20 00:02:24;;;;;;;31.00;16.20;;;;;;;0.11;81.63;100526.74;207539;1304;139783;-62
2022/12/20 00:07:29;;;;;;;32.50;16.50;;;;;;;0.08;81.57;100523.61;208148;1281;140301;-66
2022/12/20 00:12:33;;;;;;;31.40;15.80;;;;;;;0.08;81.92;100522.29;206994;1283;139480;-68
2022/12/20 00:17:37;;;;;;;31.30;14.20;;;;;;;0.07;81.80;100507.66;207321;1291;139918;-67
2022/12/20 00:22:42;;;;;;;23.80;15.00;;;;;;;0.05;82.03;100500.20;207569;1289;139386;-67
2022/12/20 00:27:49;;;;;;;31.70;16.00;;;;;;;-0.01;82.43;100501.80;207009;1291;139930;-68
2022/12/20 00:32:54;;;;;;;;;;;;;;;-0.01;82.20;100496.36;207470;1291;139949;-68
2022/12/20 00:38:01;;;;;;;31.70;14.10;;;;;;;-0.01;82.85;100493.45;207534;1296;126341;-68
2022/12/20 00:43:06;;;;;;;32.90;15.70;;;;;;;-0.01;82.74;100495.74;208613;1290;139698;-69
2022/12/20 00:48:11;;;;;;;32.50;16.50;;;;;;;0.06;82.81;100493.80;207431;1291;140251;-67
2022/12/20 00:53:16;;;;;;;28.90;15.40;;;;;;;0.14;83.05;100488.64;208073;1290;138797;-67
2022/12/20 00:58:28;;;;;;;31.60;19.00;;;;;;;0.16;83.02;100483.58;208968;1299;140787;-67
2022/12/20 01:03:33;;;;;;;29.40;16.70;;;;;;;0.16;83.29;100479.68;206956;1295;139350;-69
2022/12/20 01:08:38;;;;;;;35.80;17.00;;;;;;;0.23;83.12;100465.95;207097;1283;140462;-68
2022/12/20 01:13:46;;;;;;;26.40;16.50;;;;;;;0.20;83.25;100438.07;207212;1300;139843;-68
2022/12/20 01:18:50;;;;;;;;;;;;;;;0.13;83.18;100434.56;208967;1285;139292;-66
2022/12/20 01:23:56;;;;;;;32.20;15.20;;;;;;;0.16;83.70;100443.38;208802;1292;126082;-64
2022/12/20 01:29:00;;;;;;;30.30;18.00;;;;;;;0.25;83.48;100444.02;208781;1289;140060;-69
2022/12/20 01:34:06;;;;;;;28.50;16.50;;;;;;;0.27;83.73;100447.90;208346;1298;138936;-70
2022/12/20 01:39:13;;;;;;;30.30;14.40;;;;;;;0.25;83.34;100431.27;208603;1296;141544;-68
2022/12/20 01:44:19;;;;;;;33.60;17.40;;;;;;;0.27;83.64;100409.75;207403;1297;141147;-67
2022/12/20 01:49:32;;;;;;;24.80;12.90;;;;;;;0.25;83.73;100406.48;207509;1298;141606;-64
2022/12/20 01:54:50;;;;;;;26.00;13.80;;;;;;;0.22;83.66;100395.88;207472;1290;139100;-68
2022/12/20 01:59:56;;;;;;;24.20;12.80;;;;;;;0.25;83.70;100399.28;207506;1290;139621;-66
2022/12/20 02:05:02;;;;;;;26.70;14.40;;;;;;;0.26;83.52;100399.66;207594;1297;139367;-68
2022/12/20 02:10:09;;;;;;;24.60;11.30;;;;;;;0.24;83.99;100399.23;207177;1290;138681;-64
2022/12/20 02:15:44;;;;;;;26.10;14.30;;;;;;;0.25;83.97;100403.13;207973;1291;139522;-66
2022/12/20 02:21:06;;;;;;;27.40;14.20;;;;;;;0.30;83.66;100404.52;207198;1303;140475;-67
2022/12/20 02:26:13;;;;;;;28.80;16.20;;;;;;;0.34;83.63;100405.85;207824;1296;139933;-68
2022/12/20 02:31:25;;;;;;;27.30;15.30;;;;;;;0.38;83.94;100419.13;207959;1296;140475;-67
2022/12/20 02:36:29;;;;;;;33.10;14.40;;;;;;;0.42;83.83;100425.39;209104;1292;139560;-68
2022/12/20 02:41:42;;;;;;;22.30;13.80;;;;;;;0.48;83.46;100431.84;207610;1291;141620;-65
2022/12/20 02:46:49;;;;;;;20.00;10.40;;;;;;;0.51;83.74;100421.11;207284;1291;139768;-64
2022/12/20 02:51:56;;;;;;;31.10;14.70;;;;;;;0.51;83.69;100399.89;207390;1294;139753;-66
2022/12/20 02:57:09;;;;;;;30.50;15.50;;;;;;;0.54;83.30;100383.29;208945;1297;140217;-68
2022/12/20 03:02:15;;;;;;;29.70;12.80;;;;;;;0.59;83.94;100374.87;210108;1296;140012;-70
2022/12/20 03:07:21;;;;;;;26.80;14.50;;;;;;;0.61;83.66;100363.10;210062;1290;139997;-66
2022/12/20 03:12:26;;;;;;;29.00;16.00;;;;;;;0.63;83.43;100352.95;210064;1304;140327;-72
2022/12/20 03:17:30;;;;;;;28.00;14.70;;;;;;;0.69;83.17;100340.11;210091;1297;139620;-68
2022/12/20 03:22:36;;;;;;;30.90;16.10;;;;;;;0.73;83.41;100351.58;208785;1296;139766;-68
2022/12/20 03:27:42;;;;;;;25.50;12.10;;;;;;;0.74;83.33;100357.59;207910;1298;139681;-68
2022/12/20 03:32:47;;;;;;;24.90;13.00;;;;;;;0.76;83.25;100354.48;207411;1288;139770;-68
2022/12/20 03:37:52;;;;;;;23.00;12.20;;;;;;;0.74;83.22;100354.08;207428;1292;142498;-67
2022/12/20 03:42:57;;;;;;;25.60;13.50;;;;;;;0.72;83.33;100340.48;208462;1297;140334;-67
2022/12/20 03:48:02;;;;;;;24.70;15.60;;;;;;;0.71;83.18;100339.42;207640;1288;140161;-67
2022/12/20 03:53:08;;;;;;;27.20;13.70;;;;;;;0.73;83.18;100334.75;208267;1299;141263;-66
2022/12/20 03:58:13;;;;;;;27.20;13.80;;;;;;;0.72;83.44;100325.59;208509;1297;140201;-67
2022/12/20 04:03:18;;;;;;;25.80;13.30;;;;;;;0.75;83.42;100349.79;207724;1283;139585;-67
2022/12/20 04:08:23;;;;;;;27.10;13.40;;;;;;;0.80;82.94;100345.79;207623;1297;142869;-65
2022/12/20 04:13:28;;;;;;;24.70;13.10;;;;;;;0.83;83.23;100339.53;208063;1286;220888;-64
2022/12/20 04:18:33;;;;;;;27.10;14.40;;;;;;;0.83;83.21;100343.17;207735;1286;140619;-64
2022/12/20 04:23:39;;;;;;;26.90;15.80;;;;;;;0.82;82.79;100340.15;207457;1296;139323;-65
2022/12/20 04:28:44;;;;;;;32.50;14.00;;;;;;;0.80;82.83;100338.98;207478;1287;225031;-65
2022/12/20 04:33:48;;;;;;;24.30;14.70;;;;;;;0.81;82.77;100337.45;208777;1296;140708;-65
2022/12/20 04:38:54;;;;;;;27.40;15.70;;;;;;;0.82;82.87;100339.36;210239;1294;140009;-65
2022/12/20 04:43:58;;;;;;;26.30;16.00;;;;;;;0.83;82.79;100339.34;209102;1287;139752;-67
2022/12/20 04:49:03;;;;;;;25.50;14.20;;;;;;;0.84;82.78;100343.77;209344;1294;139369;-64
2022/12/20 04:54:09;;;;;;;21.60;13.90;;;;;;;0.91;82.39;100354.98;210582;1300;140352;-63
2022/12/20 04:59:13;;;;;;;23.50;13.50;;;;;;;0.95;82.72;100359.12;210496;1291;139982;-67
2022/12/20 05:04:18;;;;;;;24.40;12.40;;;;;;;0.95;82.10;100358.70;208925;1293;140446;-67
2022/12/20 05:09:24;;;;;;;26.20;14.20;;;;;;;0.95;82.12;100352.06;208586;1296;139647;-67
2022/12/20 05:14:28;;;;;;;27.10;11.80;;;;;;;1.00;81.82;100354.39;209302;1301;141936;-66
2022/12/20 05:19:33;;;;;;;26.20;14.10;;;;;;;0.95;81.57;100354.03;208396;1287;139704;-69
2022/12/20 05:30:01;;;;;;;18.00;10.70;;;;;;;0.97;81.80;100345.55;208380;1295;139588;-68
2022/12/20 05:35:05;;;;;;;27.00;15.50;;;;;;;0.95;81.40;100335.83;207917;1293;140466;-68
2022/12/20 05:40:09;;;;;;;26.50;14.30;;;;;;;0.91;81.30;100339.04;208160;1296;139762;-67
2022/12/20 05:45:14;;;;;;;24.00;13.20;;;;;;;0.92;81.10;100325.77;208150;1297;140518;-69
2022/12/20 05:50:17;;;;;;;23.40;10.80;;;;;;;0.91;81.15;100335.20;208469;1289;140475;-66
2022/12/20 05:55:22;;;;;;;26.80;14.10;;;;;;;0.88;80.96;100340.99;207491;1294;139818;-68
2022/12/20 06:00:28;;;;;;;32.80;14.20;;;;;;;0.84;80.81;100337.70;207995;1295;140412;-68
2022/12/20 06:05:32;;;;;;;27.20;14.10;;;;;;;0.84;80.81;100335.57;207213;1295;139650;-69
2022/12/20 06:10:36;;;;;;;22.90;13.00;;;;;;;0.82;80.76;100339.95;208429;1301;140744;-69
2022/12/20 06:15:40;;;;;;;27.70;14.20;;;;;;;0.77;80.59;100338.58;207613;1292;140528;-69
2022/12/20 06:20:50;;;;;;;32.90;14.10;;;;;;;0.71;80.47;100342.21;210403;1299;152397;-69
2022/12/20 06:25:54;;;;;;;27.30;13.90;;;;;;;0.72;80.46;100336.15;210395;1287;141238;-69
2022/12/20 06:36:10;;;;;;;33.90;16.00;;;;;;;0.66;80.23;100350.84;209325;1341;658293;-69
2022/12/20 06:41:15;;;;;;;23.50;12.30;;;;;;;0.62;80.29;100348.89;210289;1297;139399;-71
2022/12/20 06:46:23;;;;;;;32.40;15.00;;;;;;;0.65;79.90;100345.42;209480;1297;371773;-71
2022/12/20 06:51:28;;;;;;;30.70;18.10;;;;;;;0.65;79.80;100338.71;210662;1295;142365;-71
2022/12/20 06:56:32;;;;;;;35.40;17.70;;;;;;;0.60;79.87;100341.71;210091;1297;140372;-69
2022/12/20 07:01:45;;;;;;;33.20;15.40;;;;;;;0.60;79.37;100347.85;208076;1295;139686;-68
2022/12/20 07:06:50;;;;;;;29.20;15.50;;;;;;;0.63;79.40;100343.15;209511;1291;139808;-70
2022/12/20 07:11:56;;;;;;;26.30;14.80;;;;;;;0.60;79.57;100352.23;208191;1291;139844;-70
2022/12/20 07:17:04;;;;;;;27.80;15.40;;;;;;;0.60;79.47;100349.58;207754;1291;138692;-70
2022/12/20 07:22:09;;;;;;;31.60;16.00;;;;;;;0.67;79.58;100362.20;208766;1299;140013;-66
2022/12/20 07:27:15;;;;;;;28.70;15.10;;;;;;;0.78;79.65;100359.14;208379;1295;139340;-66
2022/12/20 07:32:20;;;;;;;33.80;14.20;;;;;;;0.85;79.62;100352.66;208302;1298;138696;-66
2022/12/20 07:37:28;;;;;;;35.00;15.00;;;;;;;0.90;79.35;100356.46;208453;1294;139858;-66
2022/12/20 07:42:34;;;;;;;29.60;15.10;;;;;;;1.03;79.71;100353.26;209102;1296;140440;-66
2022/12/20 07:47:43;;;;;;;31.70;16.70;;;;;;;1.16;79.34;100349.94;208640;1300;243352;-65
2022/12/20 07:52:49;;;;;;;22.60;12.10;;;;;;;1.25;79.13;100342.66;207390;1297;140209;-66
2022/12/20 07:58:01;;;;;;;26.60;14.10;;;;;;;1.31;79.33;100336.08;207895;1299;140234;-65
2022/12/20 08:03:39;;;;;;;28.70;13.80;;;;;;;1.36;78.96;100345.75;207802;1300;139026;-68
2022/12/20 08:08:51;;;;;;;27.80;15.20;;;;;;;1.45;79.13;100347.75;207470;1289;140871;-68
2022/12/20 08:13:57;;;;;;;28.20;16.20;;;;;;;1.50;78.76;100331.70;208674;1300;139534;-67
2022/12/20 08:19:02;;;;;;;27.70;16.00;;;;;;;1.58;78.55;100332.04;209376;1287;138689;-68
2022/12/20 08:24:07;;;;;;;30.70;13.70;;;;;;;1.72;78.26;100334.19;209103;1295;139364;-65
2022/12/20 08:29:13;;;;;;;29.40;15.30;;;;;;;1.83;78.15;100337.18;208570;1294;138331;-67
2022/12/20 08:34:19;;;;;;;26.50;13.70;;;;;;;1.92;78.20;100339.61;208412;1288;138966;-68
2022/12/20 08:39:24;;;;;;;35.70;17.50;;;;;;;1.97;77.99;100334.00;210526;1294;138993;-70
2022/12/20 08:44:29;;;;;;;32.80;18.50;;;;;;;2.08;77.61;100329.15;210281;1284;143629;-67
2022/12/20 08:49:34;;;;;;;33.50;16.40;;;;;;;2.21;77.55;100325.57;210407;1295;139200;-69
2022/12/20 08:54:46;;;;;;;26.40;16.20;;;;;;;2.27;77.17;100322.93;210418;1296;140711;-67
2022/12/20 08:59:52;;;;;;;33.20;16.70;;;;;;;2.34;77.11;100315.80;209309;1293;138859;-67
2022/12/20 09:04:57;;;;;;;31.30;18.50;;;;;;;2.43;76.79;100306.21;208458;1293;141197;-67
2022/12/20 09:10:01;;;;;;;31.10;16.30;;;;;;;2.43;76.74;100294.50;208830;1294;140089;-66
2022/12/20 09:15:08;;;;;;;29.70;17.50;;;;;;;2.38;76.58;100286.95;208861;1299;139487;-66
2022/12/20 09:20:14;;;;;;;28.20;14.60;;;;;;;2.40;76.48;100300.00;207911;1300;219410;-69
2022/12/20 09:25:20;;;;;;;34.50;18.30;;;;;;;2.55;76.34;100305.02;207433;1287;141357;-69
2022/12/20 09:30:25;;;;;;;32.70;15.20;;;;;;;2.69;76.39;100301.23;208060;1287;140831;-68
2022/12/20 09:35:32;;;;;;;32.00;15.90;;;;;;;2.79;76.06;100303.34;208540;1284;140382;-70
2022/12/20 09:40:55;;;;;;;28.00;15.30;;;;;;;2.91;75.75;100305.94;208396;1281;138901;-72
2022/12/20 09:46:03;;;;;;;30.30;17.10;;;;;;;3.03;75.49;100297.82;208306;1293;139256;-66
2022/12/20 09:51:19;;;;;;;87.30;46.10;;;;;;;3.28;75.72;100313.49;208593;1288;139598;-64
2022/12/20 09:56:50;;;;;;;89.10;49.00;;;;;;;3.52;75.52;100330.08;208386;1291;139410;-67
2022/12/20 10:01:57;;;;;;;39.70;21.80;;;;;;;3.60;75.20;100328.02;208166;1287;139055;-63
2022/12/20 10:07:52;;;;;;;69.80;59.10;;;;;;;3.60;74.76;100315.23;209169;1295;139654;-66
2022/12/20 10:13:15;;;;;;;31.20;18.20;;;;;;;3.61;74.56;100318.95;207790;1293;139540;-68
2022/12/20 10:18:38;;;;;;;36.80;19.00;;;;;;;3.67;74.43;100316.77;208375;1294;139448;-69
2022/12/20 10:24:02;;;;;;;34.50;17.40;;;;;;;3.75;74.63;100299.79;208773;1274;139351;-73
2022/12/20 10:29:10;;;;;;;35.20;16.70;;;;;;;3.83;74.39;100290.45;208583;1288;141051;-73
2022/12/20 10:34:15;;;;;;;28.10;15.60;;;;;;;3.86;74.22;100286.80;208638;1295;141285;-70
2022/12/20 10:39:41;;;;;;;30.70;14.60;;;;;;;3.84;74.01;100289.11;209193;1294;139362;-71
2022/12/20 10:44:46;;;;;;;34.20;17.00;;;;;;;3.79;73.93;100286.91;210269;1294;139893;-71
2022/12/20 10:49:54;;;;;;;33.60;17.90;;;;;;;3.77;73.84;100273.81;210460;1294;139773;-70
2022/12/20 10:55:00;;;;;;;27.60;14.70;;;;;;;3.66;73.63;100257.21;210511;1291;140102;-69
2022/12/20 11:00:07;;;;;;;28.40;17.60;;;;;;;3.59;73.46;100245.10;210348;1294;219672;-70
2022/12/20 11:05:31;;;;;;;28.50;15.90;;;;;;;3.62;73.70;100243.53;209983;1294;140036;-70
2022/12/20 11:10:36;;;;;;;36.30;17.60;;;;;;;3.59;73.55;100237.85;207837;1294;140398;-69
2022/12/20 11:15:49;;;;;;;35.20;18.40;;;;;;;3.63;73.65;100223.52;208576;1294;245286;-69
2022/12/20 11:21:36;;;;;;;29.50;17.80;;;;;;;3.67;73.48;100216.41;208074;1295;140279;-67
2022/12/20 11:26:55;;;;;;;28.30;16.20;;;;;;;3.85;73.56;100202.88;207691;1288;139202;-67
2022/12/20 11:32:13;;;;;;;30.70;15.00;;;;;;;4.14;73.37;100202.08;208540;1287;139590;-66
2022/12/20 11:37:23;;;;;;;33.30;17.90;;;;;;;4.44;73.17;100207.64;207734;1294;139096;-67
2022/12/20 11:42:47;;;;;;;37.10;19.00;;;;;;;4.61;72.78;100209.38;207886;1294;140470;-66
2022/12/20 11:48:25;;;;;;;30.10;18.00;;;;;;;4.48;72.35;100219.44;207813;1287;139660;-66
2022/12/20 11:54:08;;;;;;;34.20;16.70;;;;;;;4.31;72.37;100220.18;208390;1295;139477;-67
2022/12/20 11:59:26;;;;;;;32.20;16.10;;;;;;;4.18;72.55;100211.08;208794;1297;229811;-66
2022/12/20 12:04:43;;;;;;;28.80;15.50;;;;;;;4.09;72.57;100207.02;207957;1281;139146;-66
2022/12/20 12:10:17;;;;;;;29.40;17.60;;;;;;;4.09;72.49;100220.89;208820;1287;141281;-66
2022/12/20 12:15:30;;;;;;;25.30;13.90;;;;;;;3.99;72.53;100226.50;207835;1288;139141;-66
2022/12/20 12:21:00;;;;;;;28.90;17.10;;;;;;;3.90;72.45;100228.27;209148;1287;139301;-66
2022/12/20 12:26:36;;;;;;;36.00;19.80;;;;;;;3.79;72.74;100229.39;207462;1287;140392;-66
2022/12/20 12:31:46;;;;;;;26.40;14.80;;;;;;;3.71;72.97;100232.42;208717;1294;140076;-65
2022/12/20 12:37:12;;;;;;;32.70;16.80;;;;;;;3.63;72.80;100227.08;209451;1294;140058;-67
2022/12/20 12:42:26;;;;;;;34.00;17.10;;;;;;;3.65;72.74;100220.66;210548;1289;235800;-66
2022/12/20 12:47:44;;;;;;;37.90;17.90;;;;;;;3.65;73.00;100214.30;210164;1294;140460;-66
2022/12/20 12:52:53;;;;;;;27.50;16.20;;;;;;;3.62;72.84;100201.31;210589;1294;140845;-66
2022/12/20 12:57:58;;;;;;;23.00;13.60;;;;;;;3.64;72.94;100194.08;209996;1288;140822;-66
2022/12/20 13:03:15;;;;;;;37.90;19.90;;;;;;;3.64;72.86;100166.86;209255;1294;139150;-66
2022/12/20 13:09:07;;;;;;;34.10;19.10;;;;;;;3.59;72.68;100166.73;208896;1274;140010;-65
2022/12/20 13:14:26;;;;;;;34.50;18.00;;;;;;;3.55;72.90;100182.81;208510;1286;140461;-67
2022/12/20 13:19:37;;;;;;;32.10;17.30;;;;;;;3.51;72.93;100175.54;209119;1294;138889;-68
2022/12/20 13:24:47;;;;;;;33.70;16.50;;;;;;;3.46;72.95;100178.21;208509;1293;140577;-68
2022/12/20 13:30:21;;;;;;;31.20;19.30;;;;;;;3.36;72.95;100180.40;207793;1288;139967;-69
2022/12/20 13:35:25;;;;;;;37.50;19.60;;;;;;;3.38;73.19;100178.66;208276;1294;140099;-67
2022/12/20 13:40:48;;;;;;;35.60;20.30;;;;;;;3.35;73.06;100181.92;208267;1294;140375;-68
2022/12/20 13:46:18;;;;;;;31.10;17.50;;;;;;;3.27;73.23;100190.79;208904;1287;140026;-68
2022/12/20 13:51:26;;;;;;;36.20;17.90;;;;;;;3.20;73.45;100193.01;207548;1287;139109;-66
2022/12/20 13:56:32;;;;;;;34.50;16.50;;;;;;;3.14;73.46;100190.08;207701;1293;138870;-66
2022/12/20 14:01:36;;;;;;;41.60;19.90;;;;;;;3.05;73.45;100186.34;207454;1295;139902;-66
2022/12/20 14:06:39;;;;;;;36.00;17.70;;;;;;;2.97;73.53;100179.15;208513;1293;139813;-66
2022/12/20 14:11:46;;;;;;;33.90;18.70;;;;;;;2.89;73.65;100176.56;207933;1293;140430;-66
2022/12/20 14:16:50;;;;;;;28.80;14.20;;;;;;;2.81;73.74;100170.48;208776;1294;139916;-67
2022/12/20 14:21:55;;;;;;;43.50;21.40;;;;;;;2.72;73.91;100158.22;210032;1295;202835;-66
2022/12/20 14:26:59;;;;;;;31.30;15.80;;;;;;;2.66;74.13;100156.57;208115;1287;142576;-67
2022/12/20 14:32:04;;;;;;;36.90;17.40;;;;;;;2.59;73.93;100150.32;208796;1290;139307;-66
2022/12/20 14:37:23;;;;;;;31.80;16.40;;;;;;;2.58;73.96;100149.56;208292;1291;139517;-66
2022/12/20 14:42:33;;;;;;;32.80;20.20;;;;;;;2.55;74.17;100151.85;208556;1288;138927;-66
2022/12/20 14:47:47;;;;;;;32.20;19.40;;;;;;;2.49;74.34;100149.60;208830;1294;140549;-66
2022/12/20 14:52:50;;;;;;;30.00;16.00;;;;;;;2.42;74.54;100141.92;208775;1287;140925;-67
2022/12/20 14:57:56;;;;;;;30.40;17.40;;;;;;;2.41;74.56;100140.16;209252;1289;139176;-69
2022/12/20 15:03:11;;;;;;;36.40;19.70;;;;;;;2.45;74.45;100139.34;208573;1294;139502;-67
2022/12/20 15:08:23;;;;;;;29.10;15.90;;;;;;;2.44;74.61;100140.33;207746;1288;142041;-65
2022/12/20 15:13:30;;;;;;;31.60;14.80;;;;;;;2.40;74.75;100127.80;209042;1297;141020;-66
2022/12/20 15:18:35;;;;;;;34.90;18.10;;;;;;;2.33;74.80;100117.63;207864;1293;138847;-67
2022/12/20 15:23:51;;;;;;;36.60;21.10;;;;;;;2.24;74.42;100117.11;207531;1289;140207;-67
2022/12/20 15:29:34;;;;;;;27.70;15.70;;;;;;;2.18;74.77;100116.20;208018;1294;139087;-67
2022/12/20 15:34:57;;;;;;;29.70;17.40;;;;;;;2.13;75.18;100104.64;207377;1298;234209;-67
2022/12/20 15:40:01;;;;;;;31.70;19.70;;;;;;;2.10;74.90;100100.35;207935;1289;139962;-66
2022/12/20 15:45:06;;;;;;;36.10;20.60;;;;;;;2.08;75.30;100097.54;207946;1287;139890;-67
2022/12/20 15:50:10;;;;;;;30.20;17.10;;;;;;;2.08;75.44;100106.12;208012;1287;139478;-67
2022/12/20 15:55:15;;;;;;;26.20;15.30;;;;;;;2.07;75.43;100094.55;207789;1288;140420;-68
2022/12/20 16:00:21;;;;;;;32.20;16.00;;;;;;;2.07;75.24;100089.62;208961;1287;140950;-67
2022/12/20 16:05:26;;;;;;;36.60;19.60;;;;;;;2.11;75.62;100092.66;208073;1288;140557;-67
2022/12/20 16:10:32;;;;;;;45.50;20.80;;;;;;;2.14;75.56;100085.15;208729;1288;140768;-67
2022/12/20 16:15:40;;;;;;;36.00;19.00;;;;;;;2.11;75.46;100087.89;208772;1294;139760;-67
2022/12/20 16:20:45;;;;;;;29.90;15.80;;;;;;;2.11;75.41;100104.00;208194;1294;140478;-67
2022/12/20 16:25:51;;;;;;;32.40;19.90;;;;;;;2.09;75.51;100101.15;209063;1294;139601;-68
2022/12/20 16:30:56;;;;;;;37.40;21.50;;;;;;;2.02;75.54;100094.82;210428;1297;139554;-68
2022/12/20 16:36:01;;;;;;;27.40;14.50;;;;;;;1.98;75.66;100095.14;209741;1291;140365;-68
2022/12/20 16:41:18;;;;;;;40.40;17.80;;;;;;;1.94;75.33;100105.95;208973;1293;141119;-67
2022/12/20 16:46:26;;;;;;;35.00;20.30;;;;;;;1.91;75.52;100108.72;210119;1287;139678;-67
2022/12/20 16:51:38;;;;;;;37.10;19.80;;;;;;;1.84;75.72;100106.16;209426;1288;140509;-68
2022/12/20 16:56:50;;;;;;;40.40;19.80;;;;;;;1.83;75.58;100107.11;208143;1292;139466;-68
2022/12/20 17:01:56;;;;;;;25.80;14.50;;;;;;;1.80;75.99;100117.36;207758;1286;140116;-68
2022/12/20 17:07:01;;;;;;;36.90;19.20;;;;;;;1.72;75.70;100100.71;207528;1294;139701;-68
2022/12/20 17:12:18;;;;;;;38.90;18.60;;;;;;;1.68;75.62;100081.63;207916;1294;140639;-68
2022/12/20 17:17:24;;;;;;;41.80;21.70;;;;;;;1.60;75.97;100074.45;208187;1294;140306;-67
2022/12/20 17:22:28;;;;;;;43.80;23.00;;;;;;;1.56;76.44;100076.30;208935;1291;139647;-67
2022/12/20 17:27:32;;;;;;;40.30;24.20;;;;;;;1.54;76.56;100089.55;207735;1287;139769;-66
2022/12/20 17:32:36;;;;;;;40.10;21.00;;;;;;;1.53;76.64;100087.55;207628;1294;139854;-66
2022/12/20 17:37:41;;;;;;;37.20;21.10;;;;;;;1.52;76.68;100079.36;208094;1294;139241;-67
2022/12/20 17:42:46;;;;;;;39.60;20.70;;;;;;;1.57;76.50;100086.88;207549;1288;207114;-68
2022/12/20 17:47:52;;;;;;;42.60;21.50;;;;;;;1.57;76.64;100090.84;207307;1295;139483;-67
2022/12/20 17:52:57;;;;;;;43.10;23.80;;;;;;;1.56;76.64;100072.30;207452;1281;140723;-68
2022/12/20 17:58:02;;;;;;;42.70;19.80;;;;;;;1.48;76.65;100073.02;207549;1294;139823;-67
2022/12/20 18:03:08;;;;;;;49.90;24.70;;;;;;;1.49;76.63;100081.79;207362;1294;140780;-67
2022/12/20 18:08:34;;;;;;;41.40;22.90;;;;;;;1.47;76.75;100074.54;207637;1281;139847;-66
2022/12/20 18:13:42;;;;;;;37.20;18.70;;;;;;;1.43;76.95;100065.91;208469;1291;140414;-68
2022/12/20 18:18:48;;;;;;;43.30;22.90;;;;;;;1.33;76.91;100053.61;207859;1295;141258;-67
2022/12/20 18:23:54;;;;;;;42.50;23.90;;;;;;;1.32;76.76;100053.84;209991;1281;141108;-67
2022/12/20 18:29:00;;;;;;;49.00;25.60;;;;;;;1.29;76.62;100053.78;209000;1293;140563;-67
2022/12/20 18:34:05;;;;;;;38.70;20.50;;;;;;;1.23;76.93;100056.48;210356;1294;142315;-67
2022/12/20 18:39:11;;;;;;;53.70;25.10;;;;;;;1.23;76.85;100056.29;210352;1282;140243;-67
2022/12/20 18:44:15;;;;;;;38.50;21.90;;;;;;;1.33;77.01;100045.08;209568;1286;141757;-66
2022/12/20 18:49:20;;;;;;;53.10;27.00;;;;;;;1.33;76.93;100039.62;208288;1288;389741;-68
2022/12/20 18:54:25;;;;;;;43.60;24.40;;;;;;;1.30;77.46;100046.75;208203;1288;142580;-67
2022/12/20 18:59:29;;;;;;;41.00;20.60;;;;;;;1.33;76.81;100038.89;209093;1288;139493;-67
2022/12/20 19:04:34;;;;;;;44.50;23.20;;;;;;;1.40;77.16;100043.13;208072;1287;139882;-66
2022/12/20 19:09:40;;;;;;;32.50;18.70;;;;;;;1.40;77.20;100044.18;207570;1287;140032;-66
2022/12/20 19:14:45;;;;;;;44.00;23.30;;;;;;;1.36;77.23;100039.77;207571;1294;139935;-67
2022/12/20 19:19:50;;;;;;;40.30;19.60;;;;;;;1.37;77.31;100045.50;207912;1301;139753;-67
2022/12/20 19:24:55;;;;;;;37.50;18.10;;;;;;;1.43;77.28;100028.18;207767;1288;162597;-66
2022/12/20 19:29:59;;;;;;;39.20;21.60;;;;;;;1.42;77.16;100025.33;208153;1287;142690;-66
2022/12/20 19:35:03;;;;;;;45.90;23.60;;;;;;;1.42;77.34;100039.05;208149;1294;230316;-68
2022/12/20 19:40:27;;;;;;;38.80;19.30;;;;;;;1.41;77.19;100031.73;209107;1293;140065;-66
2022/12/20 19:45:38;;;;;;;44.10;21.10;;;;;;;1.43;76.94;100028.54;207847;1293;140229;-67
2022/12/20 19:50:43;;;;;;;31.20;17.00;;;;;;;1.43;77.24;100017.34;207859;1294;219026;-66
2022/12/20 19:55:54;;;;;;;35.70;21.10;;;;;;;1.43;77.34;100005.10;208265;1294;140976;-66
2022/12/20 20:01:03;;;;;;;39.60;19.10;;;;;;;1.42;77.31;100004.38;209128;1294;141248;-66
2022/12/20 20:06:09;;;;;;;38.60;19.40;;;;;;;1.43;77.24;99995.87;207733;1294;140478;-67
2022/12/20 20:11:14;;;;;;;40.60;20.60;;;;;;;1.42;76.85;99987.38;209295;1295;139158;-67
2022/12/20 20:16:17;;;;;;;41.80;22.80;;;;;;;1.42;77.34;99980.18;208088;1287;139091;-68
2022/12/20 20:21:25;;;;;;;47.20;22.00;;;;;;;1.39;77.29;99970.20;207568;1293;139681;-68
2022/12/20 20:26:30;;;;;;;48.40;23.50;;;;;;;1.39;77.10;99988.69;210454;1294;140811;-67
2022/12/20 20:31:36;;;;;;;29.10;15.40;;;;;;;1.46;77.24;99992.71;210342;1295;139261;-68
2022/12/20 20:36:43;;;;;;;43.20;21.40;;;;;;;1.48;76.89;99987.55;209486;1288;141650;-67
2022/12/20 20:41:47;;;;;;;42.10;19.50;;;;;;;1.43;76.77;99970.91;209170;1293;140385;-67
2022/12/20 20:46:52;;;;;;;44.80;22.40;;;;;;;1.46;76.92;99971.34;208504;1293;139779;-68
2022/12/20 20:51:58;;;;;;;44.40;23.20;;;;;;;1.51;76.76;99974.80;208007;1287;142515;-66
2022/12/20 20:57:02;;;;;;;40.30;21.10;;;;;;;1.51;76.70;99974.37;208968;1294;140486;-67
2022/12/20 21:02:12;;;;;;;31.20;18.20;;;;;;;1.47;76.82;99977.48;208893;1280;140855;-67
2022/12/20 21:07:17;;;;;;;41.70;19.60;;;;;;;1.40;76.52;99968.49;208074;1288;140061;-67
2022/12/20 21:12:21;;;;;;;59.10;27.60;;;;;;;1.32;76.69;99958.66;208540;1281;139832;-68
2022/12/20 21:17:26;;;;;;;41.30;20.60;;;;;;;1.29;77.11;99957.80;207779;1287;150602;-64
2022/12/20 21:22:32;;;;;;;48.40;24.30;;;;;;;1.35;76.79;99957.35;207842;1287;139693;-65
2022/12/20 21:27:37;;;;;;;41.70;24.20;;;;;;;1.39;76.85;99959.70;209107;1295;140601;-65
2022/12/20 21:32:41;;;;;;;50.20;25.30;;;;;;;1.38;77.03;99949.09;208059;1287;139750;-66
2022/12/20 21:37:47;;;;;;;41.50;21.10;;;;;;;1.33;77.02;99945.56;208200;1293;138838;-66
2022/12/20 21:42:52;;;;;;;43.80;22.50;;;;;;;1.34;77.06;99934.98;209071;1294;141617;-64
2022/12/20 21:47:57;;;;;;;35.90;19.20;;;;;;;1.36;77.03;99928.05;208842;1288;139604;-65
2022/12/20 21:53:06;;;;;;;35.90;19.80;;;;;;;1.34;76.93;99919.54;209043;1288;140443;-76
2022/12/20 21:58:16;;;;;;;44.10;20.90;;;;;;;1.31;77.08;99919.34;207431;1287;139894;-66
2022/12/20 22:03:22;;;;;;;45.90;24.70;;;;;;;1.35;76.80;99928.55;208675;1295;139967;-67
2022/12/20 22:08:29;;;;;;;41.70;24.50;;;;;;;1.38;76.99;99919.84;209559;1288;140351;-69
2022/12/20 22:13:38;;;;;;;34.10;15.50;;;;;;;1.38;77.05;99910.79;209191;1297;139829;-69
2022/12/20 22:18:48;;;;;;;51.20;23.80;;;;;;;1.36;76.84;99906.89;208829;1287;247463;-67
2022/12/20 22:23:54;;;;;;;38.60;21.50;;;;;;;1.44;76.88;99904.33;210163;1295;139938;-67
2022/12/20 22:29:03;;;;;;;43.20;21.60;;;;;;;1.43;76.84;99911.55;210494;1293;140069;-67
2022/12/20 22:34:09;;;;;;;41.40;21.70;;;;;;;1.46;77.21;99906.13;210404;1298;158885;-68
2022/12/20 22:39:13;;;;;;;42.70;20.00;;;;;;;1.48;77.08;99890.19;208232;1295;139166;-69
2022/12/20 22:44:19;;;;;;;40.30;18.30;;;;;;;1.53;76.79;99886.27;209573;1298;140382;-68
2022/12/20 22:49:24;;;;;;;33.60;17.20;;;;;;;1.57;76.99;99884.02;208910;1289;153439;-68
2022/12/20 22:54:28;;;;;;;27.70;17.30;;;;;;;1.58;77.06;99869.16;207599;1294;140099;-67
2022/12/20 22:59:33;;;;;;;36.80;19.20;;;;;;;1.56;76.92;99856.83;209334;1294;140634;-64
2022/12/20 23:04:38;;;;;;;43.00;21.50;;;;;;;1.57;77.06;99854.14;208333;1290;141753;-67
2022/12/20 23:09:42;;;;;;;33.10;19.00;;;;;;;1.62;77.04;99847.43;208812;1300;140612;-67
2022/12/20 23:25:34;;;;;;;40.70;21.90;;;;;;;1.57;76.98;99840.42;208788;1294;140018;-66
2022/12/20 23:30:39;;;;;;;45.90;22.80;;;;;;;1.60;77.27;99828.76;208153;1288;140581;-66